Time,TemperatureF,DewpointF,PressureIn,WindDirection,WindDirectionDegrees,WindSpeedMPH,WindSpeedGustMPH,Humidity,HourlyPrecipIn,Conditions,Clouds,dailyrainin,SoftwareType,DateUTC
2013-08-08 00:04:00,67.2,64.5,29.97,NE,45,0.0,0.0,91,0.00,,,0.00,WUHU216HW,2013-08-08 04:04:00,
2013-08-08 00:09:00,67.2,64.5,29.97,NE,45,0.0,0.0,91,0.00,,,0.00,WUHU216HW,2013-08-08 04:09:00,
2013-08-08 00:14:00,67.2,64.5,29.97,NE,45,0.0,0.0,91,0.00,,,0.00,WUHU216HW,2013-08-08 04:14:00,
2013-08-08 00:19:00,67.1,64.3,29.97,NE,45,0.0,0.0,91,0.00,,,0.00,WUHU216HW,2013-08-08 04:19:00,
2013-08-08 00:25:00,67.1,64.3,29.97,NE,45,0.0,0.0,91,0.00,,,0.00,WUHU216HW,2013-08-08 04:25:00,
2013-08-08 00:31:00,67.1,64.3,29.97,NE,45,0.0,0.0,91,0.00,,,0.00,WUHU216HW,2013-08-08 04:31:00,
2013-08-08 00:36:00,66.9,64.1,29.97,NE,45,0.0,0.0,91,0.00,,,0.00,WUHU216HW,2013-08-08 04:36:00,
2013-08-08 00:43:00,66.9,64.1,29.97,NE,45,0.0,0.0,91,0.00,,,0.00,WUHU216HW,2013-08-08 04:43:00,
2013-08-08 00:53:00,66.7,63.9,29.97,NE,45,0.0,0.0,91,0.00,,,0.00,WUHU216HW,2013-08-08 04:53:00,
2013-08-08 00:58:00,66.7,63.9,29.97,NE,45,0.0,0.0,91,0.00,,,0.00,WUHU216HW,2013-08-08 04:58:00,
2013-08-08 01:04:00,66.7,63.9,29.96,NE,45,0.0,0.0,91,0.00,,,0.00,WUHU216HW,2013-08-08 05:04:00,
2013-08-08 01:09:00,66.7,63.9,29.96,NE,45,0.0,0.0,91,0.00,,,0.00,WUHU216HW,2013-08-08 05:09:00,
2013-08-08 01:15:00,66.7,63.9,29.96,NE,45,0.0,0.0,91,0.00,,,0.00,WUHU216HW,2013-08-08 05:15:00,
2013-08-08 01:20:00,66.7,63.9,29.96,NE,45,0.0,0.0,91,0.00,,,0.00,WUHU216HW,2013-08-08 05:20:00,
2013-08-08 01:25:00,66.7,63.9,29.96,NE,45,0.0,0.0,91,0.00,,,0.00,WUHU216HW,2013-08-08 05:25:00,
2013-08-08 01:31:00,66.7,63.9,29.96,NE,45,0.0,0.0,91,0.00,,,0.00,WUHU216HW,2013-08-08 05:31:00,
2013-08-08 01:36:00,66.7,63.9,29.96,NE,45,0.0,0.0,91,0.00,,,0.00,WUHU216HW,2013-08-08 05:36:00,
2013-08-08 01:42:00,66.5,63.8,29.95,NE,45,0.0,0.0,91,0.00,,,0.00,WUHU216HW,2013-08-08 05:42:00,
2013-08-08 01:47:00,66.5,63.8,29.95,NE,45,0.0,0.0,91,0.00,,,0.00,WUHU216HW,2013-08-08 05:47:00,
2013-08-08 01:52:00,66.3,63.6,29.95,NE,45,0.0,0.0,91,0.00,,,0.00,WUHU216HW,2013-08-08 05:52:00,
2013-08-08 01:58:00,66.3,63.6,29.95,NE,45,0.0,0.0,91,0.00,,,0.00,WUHU216HW,2013-08-08 05:58:00,
2013-08-08 02:04:00,66.3,63.6,29.95,NE,45,0.0,0.0,91,0.00,,,0.00,WUHU216HW,2013-08-08 06:04:00,
2013-08-08 02:09:00,66.3,63.6,29.95,NE,45,0.0,0.0,91,0.00,,,0.00,WUHU216HW,2013-08-08 06:09:00,
2013-08-08 02:15:00,66.2,63.4,29.95,NE,45,0.0,0.0,91,0.00,,,0.00,WUHU216HW,2013-08-08 06:15:00,
2013-08-08 02:21:00,66.0,63.2,29.95,NE,45,0.0,0.0,91,0.00,,,0.00,WUHU216HW,2013-08-08 06:21:00,
2013-08-08 02:32:00,66.0,63.2,29.95,NE,45,0.0,0.0,91,0.00,,,0.00,WUHU216HW,2013-08-08 06:32:00,
2013-08-08 02:38:00,66.0,63.2,29.95,NE,45,0.0,0.0,91,0.00,,,0.00,WUHU216HW,2013-08-08 06:38:00,
2013-08-08 02:44:00,66.0,63.5,29.95,NE,45,0.0,0.0,92,0.00,,,0.00,WUHU216HW,2013-08-08 06:44:00,
2013-08-08 02:50:00,66.0,63.5,29.95,NE,45,0.0,0.0,92,0.00,,,0.00,WUHU216HW,2013-08-08 06:50:00,
2013-08-08 02:55:00,65.8,63.4,29.95,NE,45,0.0,0.0,92,0.00,,,0.00,WUHU216HW,2013-08-08 06:55:00,
2013-08-08 03:01:00,65.8,63.4,29.95,NE,45,0.0,0.0,92,0.00,,,0.00,WUHU216HW,2013-08-08 07:01:00,
2013-08-08 03:06:00,65.8,63.4,29.95,NE,45,0.0,0.0,92,0.00,,,0.00,WUHU216HW,2013-08-08 07:06:00,
2013-08-08 03:12:00,65.8,63.4,29.95,NE,45,0.0,0.0,92,0.00,,,0.00,WUHU216HW,2013-08-08 07:12:00,
2013-08-08 03:17:00,65.8,63.4,29.95,NE,45,0.0,0.0,92,0.00,,,0.00,WUHU216HW,2013-08-08 07:17:00,
2013-08-08 03:22:00,65.8,63.4,29.95,NE,45,0.0,0.0,92,0.00,,,0.00,WUHU216HW,2013-08-08 07:22:00,
2013-08-08 03:28:00,65.8,63.4,29.95,NE,45,0.0,0.0,92,0.00,,,0.00,WUHU216HW,2013-08-08 07:28:00,
2013-08-08 03:34:00,65.8,63.4,29.95,NE,45,0.0,0.0,92,0.00,,,0.00,WUHU216HW,2013-08-08 07:34:00,
2013-08-08 03:40:00,65.8,63.4,29.95,NE,45,0.0,0.0,92,0.00,,,0.00,WUHU216HW,2013-08-08 07:40:00,
2013-08-08 03:45:00,65.8,63.4,29.95,NE,45,0.0,0.0,92,0.00,,,0.00,WUHU216HW,2013-08-08 07:45:00,
2013-08-08 03:51:00,65.8,63.4,29.95,NE,45,0.0,0.0,92,0.00,,,0.00,WUHU216HW,2013-08-08 07:51:00,
2013-08-08 03:57:00,65.8,63.4,29.95,NE,45,0.0,0.0,92,0.00,,,0.00,WUHU216HW,2013-08-08 07:57:00,
2013-08-08 04:03:00,65.8,63.4,29.95,NE,45,0.0,0.0,92,0.00,,,0.00,WUHU216HW,2013-08-08 08:03:00,
2013-08-08 04:09:00,65.8,63.4,29.95,NE,45,0.0,0.0,92,0.00,,,0.00,WUHU216HW,2013-08-08 08:09:00,
2013-08-08 04:15:00,65.8,63.4,29.95,NE,45,0.0,0.0,92,0.00,,,0.00,WUHU216HW,2013-08-08 08:15:00,
2013-08-08 04:20:00,66.0,63.5,29.95,NE,45,0.0,0.0,92,0.00,,,0.00,WUHU216HW,2013-08-08 08:20:00,
2013-08-08 04:25:00,66.0,63.5,29.95,NE,45,0.0,0.0,92,0.00,,,0.00,WUHU216HW,2013-08-08 08:25:00,
2013-08-08 04:30:00,66.0,63.5,29.95,NE,45,0.0,0.0,92,0.00,,,0.00,WUHU216HW,2013-08-08 08:30:00,
2013-08-08 04:36:00,66.0,63.5,29.95,NE,45,0.0,0.0,92,0.00,,,0.00,WUHU216HW,2013-08-08 08:36:00,
2013-08-08 04:42:00,66.0,63.8,29.95,NE,45,0.0,0.0,93,0.00,,,0.00,WUHU216HW,2013-08-08 08:42:00,
2013-08-08 04:47:00,66.2,64.0,29.95,NE,45,0.0,0.0,93,0.00,,,0.00,WUHU216HW,2013-08-08 08:47:00,
2013-08-08 04:53:00,66.3,64.2,29.95,NE,45,0.0,0.0,93,0.00,,,0.00,WUHU216HW,2013-08-08 08:53:00,
2013-08-08 04:58:00,66.3,64.2,29.96,NE,45,0.0,0.0,93,0.00,,,0.00,WUHU216HW,2013-08-08 08:58:00,
2013-08-08 05:03:00,66.3,64.2,29.95,NE,45,0.0,0.0,93,0.00,,,0.00,WUHU216HW,2013-08-08 09:03:00,
2013-08-08 05:08:00,66.3,64.2,29.96,NE,45,0.0,0.0,93,0.00,,,0.00,WUHU216HW,2013-08-08 09:08:00,
2013-08-08 05:14:00,66.5,64.4,29.96,NE,45,0.0,0.0,93,0.00,,,0.00,WUHU216HW,2013-08-08 09:14:00,
2013-08-08 05:19:00,66.5,64.4,29.95,NE,45,0.0,0.0,93,0.00,,,0.00,WUHU216HW,2013-08-08 09:19:00,
2013-08-08 05:25:00,66.5,64.4,29.96,NE,45,0.0,0.0,93,0.00,,,0.00,WUHU216HW,2013-08-08 09:25:00,
2013-08-08 05:30:00,66.3,64.2,29.95,NE,45,0.0,0.0,93,0.00,,,0.00,WUHU216HW,2013-08-08 09:30:00,
2013-08-08 05:36:00,66.5,64.4,29.96,NE,45,0.0,0.0,93,0.00,,,0.00,WUHU216HW,2013-08-08 09:36:00,
2013-08-08 05:42:00,66.5,64.4,29.96,NE,45,0.0,0.0,93,0.00,,,0.00,WUHU216HW,2013-08-08 09:42:00,
2013-08-08 05:48:00,66.5,64.4,29.96,NE,45,0.0,0.0,93,0.00,,,0.00,WUHU216HW,2013-08-08 09:48:00,
2013-08-08 05:53:00,66.5,64.4,29.96,NE,45,0.0,0.0,93,0.00,,,0.00,WUHU216HW,2013-08-08 09:53:00,
2013-08-08 05:59:00,66.7,64.5,29.96,NE,45,0.0,0.0,93,0.00,,,0.00,WUHU216HW,2013-08-08 09:59:00,
2013-08-08 06:04:00,66.7,64.5,29.96,NE,45,0.0,0.0,93,0.00,,,0.00,WUHU216HW,2013-08-08 10:04:00,
2013-08-08 06:09:00,66.7,64.5,29.96,NE,45,0.0,0.0,93,0.00,,,0.00,WUHU216HW,2013-08-08 10:09:00,
2013-08-08 06:15:00,66.7,64.5,29.96,NE,45,0.0,0.0,93,0.00,,,0.00,WUHU216HW,2013-08-08 10:15:00,
2013-08-08 06:20:00,66.7,64.5,29.96,NE,45,0.0,0.0,93,0.00,,,0.00,WUHU216HW,2013-08-08 10:20:00,
2013-08-08 06:26:00,66.7,64.5,29.96,NE,45,0.0,0.0,93,0.00,,,0.00,WUHU216HW,2013-08-08 10:26:00,
2013-08-08 06:31:00,66.7,64.5,29.96,NE,45,0.0,0.0,93,0.00,,,0.00,WUHU216HW,2013-08-08 10:31:00,
2013-08-08 06:36:00,66.7,64.5,29.96,NE,45,0.0,0.0,93,0.00,,,0.00,WUHU216HW,2013-08-08 10:36:00,
2013-08-08 06:42:00,66.7,64.5,29.96,NE,45,0.0,0.0,93,0.00,,,0.00,WUHU216HW,2013-08-08 10:42:00,
2013-08-08 06:48:00,66.7,64.5,29.96,NE,45,0.0,0.0,93,0.00,,,0.00,WUHU216HW,2013-08-08 10:48:00,
2013-08-08 06:53:00,66.9,64.7,29.96,NE,45,0.0,0.0,93,0.00,,,0.00,WUHU216HW,2013-08-08 10:53:00,
2013-08-08 06:59:00,66.9,64.7,29.96,NE,45,0.0,0.0,93,0.00,,,0.00,WUHU216HW,2013-08-08 10:59:00,
2013-08-08 07:04:00,67.1,64.9,29.96,NE,45,0.0,0.0,93,0.00,,,0.00,WUHU216HW,2013-08-08 11:04:00,
2013-08-08 07:09:00,67.2,64.9,29.96,NE,45,0.0,0.0,93,0.00,,,0.00,WUHU216HW,2013-08-08 11:09:00,
2013-08-08 07:15:00,67.2,65.1,29.96,NE,45,0.0,0.0,93,0.00,,,0.00,WUHU216HW,2013-08-08 11:15:00,
2013-08-08 07:21:00,67.2,65.1,29.97,NE,45,0.0,0.0,93,0.00,,,0.00,WUHU216HW,2013-08-08 11:21:00,
2013-08-08 07:26:00,67.6,65.8,29.97,NE,45,0.0,0.0,94,0.00,,,0.00,WUHU216HW,2013-08-08 11:26:00,
2013-08-08 07:31:00,67.8,65.9,29.97,NE,45,0.0,0.0,94,0.00,,,0.00,WUHU216HW,2013-08-08 11:31:00,
2013-08-08 07:36:00,67.8,65.9,29.97,NE,45,0.0,0.0,94,0.00,,,0.00,WUHU216HW,2013-08-08 11:36:00,
2013-08-08 07:42:00,68.1,66.3,29.96,NE,45,0.0,0.0,94,0.00,,,0.00,WUHU216HW,2013-08-08 11:42:00,
2013-08-08 07:48:00,68.3,66.5,29.96,NE,45,0.0,0.0,94,0.00,,,0.00,WUHU216HW,2013-08-08 11:48:00,
2013-08-08 07:54:00,68.5,66.7,29.97,NE,45,0.0,0.0,94,0.00,,,0.00,WUHU216HW,2013-08-08 11:54:00,
2013-08-08 07:59:00,68.7,66.8,29.97,NE,45,0.0,0.0,94,0.00,,,0.00,WUHU216HW,2013-08-08 11:59:00,
2013-08-08 08:05:00,69.0,67.2,29.96,NE,45,0.0,0.0,94,0.00,,,0.00,WUHU216HW,2013-08-08 12:05:00,
2013-08-08 08:10:00,69.4,67.6,29.96,NE,45,0.0,0.0,94,0.00,,,0.00,WUHU216HW,2013-08-08 12:10:00,
2013-08-08 08:16:00,69.6,67.7,29.96,NE,45,0.0,0.0,94,0.00,,,0.00,WUHU216HW,2013-08-08 12:16:00,
2013-08-08 08:22:00,69.9,68.1,29.96,NE,45,0.0,0.0,94,0.00,,,0.00,WUHU216HW,2013-08-08 12:22:00,
2013-08-08 08:27:00,70.3,68.5,29.97,NE,45,0.0,0.0,94,0.00,,,0.00,WUHU216HW,2013-08-08 12:27:00,
2013-08-08 08:33:00,70.5,68.6,29.97,NE,45,0.0,0.0,94,0.00,,,0.00,WUHU216HW,2013-08-08 12:33:00,
2013-08-08 08:39:00,70.8,69.7,29.97,NE,45,0.0,0.0,95,0.00,,,0.00,WUHU216HW,2013-08-08 12:39:00,
2013-08-08 08:45:00,71.4,69.8,29.97,NE,45,0.0,0.0,95,0.00,,,0.00,WUHU216HW,2013-08-08 12:45:00,
2013-08-08 08:50:00,71.7,69.9,29.97,NE,45,0.0,0.0,94,0.00,,,0.00,WUHU216HW,2013-08-08 12:50:00,
2013-08-08 08:56:00,72.1,70.3,29.97,NE,45,0.0,0.0,94,0.00,,,0.00,WUHU216HW,2013-08-08 12:56:00,
2013-08-08 09:01:00,72.3,70.4,29.97,NE,45,0.0,0.0,94,0.00,,,0.00,WUHU216HW,2013-08-08 13:01:00,
2013-08-08 09:06:00,72.6,70.8,29.97,NE,45,0.0,0.0,94,0.00,,,0.00,WUHU216HW,2013-08-08 13:06:00,
2013-08-08 09:12:00,73.0,71.2,29.97,NE,45,0.0,0.0,94,0.00,,,0.00,WUHU216HW,2013-08-08 13:12:00,
2013-08-08 09:17:00,73.2,71.3,29.97,NE,45,0.0,0.0,94,0.00,,,0.00,WUHU216HW,2013-08-08 13:17:00,
2013-08-08 09:22:00,73.4,71.5,29.97,NE,45,0.0,0.0,94,0.00,,,0.00,WUHU216HW,2013-08-08 13:22:00,
2013-08-08 09:27:00,73.9,72.1,29.97,NE,45,0.0,0.0,94,0.00,,,0.00,WUHU216HW,2013-08-08 13:27:00,
2013-08-08 09:32:00,74.1,72.2,29.97,NE,45,0.0,0.0,94,0.00,,,0.00,WUHU216HW,2013-08-08 13:32:00,
2013-08-08 09:38:00,75.0,73.1,29.97,NE,45,0.0,0.0,94,0.00,,,0.00,WUHU216HW,2013-08-08 13:38:00,
2013-08-08 09:43:00,75.5,73.4,29.97,NE,45,0.0,0.0,93,0.00,,,0.00,WUHU216HW,2013-08-08 13:43:00,
2013-08-08 09:48:00,76.1,73.9,29.97,NE,45,0.0,0.0,93,0.00,,,0.00,WUHU216HW,2013-08-08 13:48:00,
2013-08-08 09:54:00,76.6,73.8,29.97,NE,45,0.0,0.0,91,0.00,,,0.00,WUHU216HW,2013-08-08 13:54:00,
2013-08-08 09:59:00,76.6,73.5,29.97,NE,45,0.0,0.0,90,0.00,,,0.00,WUHU216HW,2013-08-08 13:59:00,
2013-08-08 10:04:00,76.6,73.5,29.97,NNE,23,0.0,0.0,90,0.00,,,0.00,WUHU216HW,2013-08-08 14:04:00,
2013-08-08 10:09:00,76.4,73.0,29.97,NNE,23,0.0,0.0,89,0.00,,,0.00,WUHU216HW,2013-08-08 14:09:00,
2013-08-08 10:14:00,76.2,72.8,29.97,NNE,23,0.0,0.0,89,0.00,,,0.00,WUHU216HW,2013-08-08 14:14:00,
2013-08-08 10:19:00,76.1,72.6,29.97,NNE,23,0.0,0.0,89,0.00,,,0.00,WUHU216HW,2013-08-08 14:19:00,
2013-08-08 10:25:00,75.9,72.5,29.97,NNE,23,0.0,0.0,89,0.00,,,0.00,WUHU216HW,2013-08-08 14:25:00,
2013-08-08 10:30:00,75.9,72.8,29.97,NNE,23,0.0,0.0,90,0.00,,,0.00,WUHU216HW,2013-08-08 14:30:00,
2013-08-08 10:36:00,76.2,72.8,29.97,NNE,23,0.0,0.0,89,0.00,,,0.00,WUHU216HW,2013-08-08 14:36:00,
2013-08-08 10:42:00,76.8,73.4,29.97,NNE,23,0.0,0.0,89,0.00,,,0.00,WUHU216HW,2013-08-08 14:42:00,
2013-08-08 10:48:00,76.8,73.0,29.97,NNE,23,0.0,0.0,88,0.00,,,0.00,WUHU216HW,2013-08-08 14:48:00,
2013-08-08 10:54:00,77.1,73.4,29.97,NNE,23,0.0,0.0,88,0.00,,,0.00,WUHU216HW,2013-08-08 14:54:00,
2013-08-08 10:59:00,77.7,73.9,29.97,West,270,0.0,0.0,88,0.00,,,0.00,WUHU216HW,2013-08-08 14:59:00,
2013-08-08 11:05:00,78.6,74.4,29.97,WNW,293,0.0,0.0,87,0.00,,,0.00,WUHU216HW,2013-08-08 15:05:00,
2013-08-08 11:10:00,79.3,74.8,29.98,WNW,293,0.0,0.0,86,0.00,,,0.00,WUHU216HW,2013-08-08 15:10:00,
2013-08-08 11:15:00,79.8,75.3,29.98,WNW,293,0.0,0.0,86,0.00,,,0.00,WUHU216HW,2013-08-08 15:15:00,
2013-08-08 11:20:00,80.7,75.8,29.98,WNW,293,0.0,0.0,85,0.00,,,0.00,WUHU216HW,2013-08-08 15:20:00,
2013-08-08 11:26:00,80.9,75.6,29.98,WSW,248,3.8,3.8,84,0.00,,,0.00,WUHU216HW,2013-08-08 15:26:00,
2013-08-08 11:31:00,80.6,74.9,29.98,WNW,293,0.0,3.8,83,0.00,,,0.00,WUHU216HW,2013-08-08 15:31:00,
2013-08-08 11:36:00,80.6,74.9,29.98,WNW,293,0.0,3.8,83,0.00,,,0.00,WUHU216HW,2013-08-08 15:36:00,
2013-08-08 11:42:00,80.9,75.3,29.97,WNW,293,0.0,0.0,83,0.00,,,0.00,WUHU216HW,2013-08-08 15:42:00,
2013-08-08 11:47:00,81.1,75.5,29.98,NW,315,0.0,0.0,83,0.00,,,0.00,WUHU216HW,2013-08-08 15:47:00,
2013-08-08 11:53:00,81.3,75.3,29.98,WNW,293,0.0,0.0,82,0.00,,,0.00,WUHU216HW,2013-08-08 15:53:00,
2013-08-08 11:58:00,81.3,75.3,29.98,NW,315,0.0,0.0,82,0.00,,,0.00,WUHU216HW,2013-08-08 15:58:00,
2013-08-08 12:04:00,81.3,75.0,29.97,NNW,338,0.0,0.0,81,0.00,,,0.00,WUHU216HW,2013-08-08 16:04:00,
2013-08-08 12:14:00,81.5,75.5,29.97,NNW,338,0.0,0.0,82,0.00,,,0.00,WUHU216HW,2013-08-08 16:14:00,
2013-08-08 12:20:00,82.0,75.7,29.98,NNW,338,0.0,0.0,81,0.00,,,0.00,WUHU216HW,2013-08-08 16:20:00,
2013-08-08 12:26:00,82.5,76.2,29.98,SSW,203,0.0,0.0,81,0.00,,,0.00,WUHU216HW,2013-08-08 16:26:00,
2013-08-08 12:31:00,82.5,75.9,29.98,SW,225,0.0,0.0,80,0.00,,,0.00,WUHU216HW,2013-08-08 16:31:00,
2013-08-08 12:37:00,82.2,75.5,29.98,SSW,203,0.0,0.0,80,0.00,,,0.00,WUHU216HW,2013-08-08 16:37:00,
2013-08-08 12:42:00,82.5,76.2,29.97,SSW,203,0.0,0.0,81,0.00,,,0.00,WUHU216HW,2013-08-08 16:42:00,
2013-08-08 12:47:00,83.3,76.5,29.97,SSW,203,0.0,0.0,80,0.00,,,0.00,WUHU216HW,2013-08-08 16:47:00,
2013-08-08 12:52:00,83.8,76.6,29.98,SSW,203,0.0,0.0,79,0.00,,,0.00,WUHU216HW,2013-08-08 16:52:00,
2013-08-08 12:58:00,83.8,76.6,29.97,SSW,203,0.0,0.0,79,0.00,,,0.00,WUHU216HW,2013-08-08 16:58:00,
2013-08-08 13:03:00,84.3,77.1,29.97,SSW,203,0.0,0.0,79,0.00,,,0.00,WUHU216HW,2013-08-08 17:03:00,
2013-08-08 13:09:00,85.1,77.0,29.97,SW,225,0.0,0.0,77,0.00,,,0.00,WUHU216HW,2013-08-08 17:09:00,
2013-08-08 13:14:00,84.9,76.8,29.97,SW,225,0.0,0.0,77,0.00,,,0.00,WUHU216HW,2013-08-08 17:14:00,
2013-08-08 13:20:00,84.2,75.7,29.98,SSW,203,0.0,0.0,76,0.00,,,0.00,WUHU216HW,2013-08-08 17:20:00,
2013-08-08 13:25:00,83.4,75.4,29.97,ESE,113,0.0,0.0,77,0.00,,,0.00,WUHU216HW,2013-08-08 17:25:00,
2013-08-08 13:31:00,82.2,74.7,29.97,ESE,113,0.0,0.0,78,0.00,,,0.00,WUHU216HW,2013-08-08 17:31:00,
2013-08-08 13:37:00,81.6,75.0,29.96,ESE,113,0.0,0.0,80,0.04,,,0.04,WUHU216HW,2013-08-08 17:37:00,
2013-08-08 13:42:00,81.6,75.3,29.97,ESE,113,0.0,0.0,81,0.04,,,0.04,WUHU216HW,2013-08-08 17:42:00,
2013-08-08 13:48:00,81.5,75.1,29.97,ESE,113,0.0,0.0,81,0.04,,,0.04,WUHU216HW,2013-08-08 17:48:00,
2013-08-08 13:53:00,81.5,75.8,29.97,ESE,113,0.0,0.0,83,0.04,,,0.04,WUHU216HW,2013-08-08 17:53:00,
2013-08-08 13:59:00,81.6,76.0,29.96,ESE,113,0.0,0.0,83,0.04,,,0.04,WUHU216HW,2013-08-08 17:59:00,
2013-08-08 14:09:00,83.1,77.0,29.96,WSW,248,0.0,0.0,83,0.04,,,0.04,WUHU216HW,2013-08-08 18:09:00,
2013-08-08 14:15:00,83.4,77.3,29.96,WSW,248,0.0,0.0,81,0.04,,,0.04,WUHU216HW,2013-08-08 18:15:00,
2013-08-08 14:20:00,84.3,77.9,29.95,NW,315,0.0,0.0,81,0.04,,,0.04,WUHU216HW,2013-08-08 18:20:00,
2013-08-08 14:26:00,85.1,78.2,29.95,NW,315,0.0,0.0,80,0.04,,,0.04,WUHU216HW,2013-08-08 18:26:00,
2013-08-08 14:31:00,85.6,78.8,29.95,NW,315,0.0,0.0,80,0.04,,,0.04,WUHU216HW,2013-08-08 18:31:00,
2013-08-08 14:37:00,86.1,78.5,29.95,NW,315,0.0,0.0,78,0.00,,,0.04,WUHU216HW,2013-08-08 18:37:00,
2013-08-08 14:43:00,86.5,78.4,29.95,West,270,0.0,2.4,77,0.00,,,0.04,WUHU216HW,2013-08-08 18:43:00,
2013-08-08 14:49:00,86.9,78.4,29.94,West,270,0.0,2.4,76,0.00,,,0.04,WUHU216HW,2013-08-08 18:49:00,
2013-08-08 14:54:00,87.4,78.9,29.94,West,270,0.0,0.0,76,0.00,,,0.04,WUHU216HW,2013-08-08 18:54:00,
2013-08-08 14:59:00,87.6,78.7,29.95,WSW,248,0.0,0.0,75,0.00,,,0.04,WUHU216HW,2013-08-08 18:59:00,
2013-08-08 15:05:00,87.6,78.2,29.94,West,270,0.0,0.0,74,0.00,,,0.04,WUHU216HW,2013-08-08 19:05:00,
2013-08-08 15:11:00,87.9,78.6,29.94,WSW,248,0.0,0.0,74,0.00,,,0.04,WUHU216HW,2013-08-08 19:11:00,
2013-08-08 15:17:00,88.5,79.5,29.94,WSW,248,0.0,0.0,75,0.00,,,0.04,WUHU216HW,2013-08-08 19:17:00,
2013-08-08 15:22:00,88.8,78.6,29.94,NW,315,0.0,0.0,72,0.00,,,0.04,WUHU216HW,2013-08-08 19:22:00,
2013-08-08 15:28:00,88.7,78.5,29.93,WSW,248,0.0,0.0,72,0.00,,,0.04,WUHU216HW,2013-08-08 19:28:00,
2013-08-08 15:34:00,88.5,78.3,29.93,WSW,248,0.0,0.0,72,0.00,,,0.04,WUHU216HW,2013-08-08 19:34:00,
2013-08-08 15:39:00,88.5,77.9,29.93,WSW,248,0.0,0.8,71,0.00,,,0.04,WUHU216HW,2013-08-08 19:39:00,
2013-08-08 15:45:00,89.0,78.4,29.92,WSW,248,0.0,0.8,71,0.00,,,0.04,WUHU216HW,2013-08-08 19:45:00,
2013-08-08 15:50:00,89.4,78.4,29.93,WSW,248,0.0,0.0,70,0.00,,,0.04,WUHU216HW,2013-08-08 19:50:00,
2013-08-08 16:01:00,90.1,79.1,29.93,WSW,248,0.0,0.0,70,0.02,,,0.06,WUHU216HW,2013-08-08 20:01:00,
2013-08-08 16:06:00,90.3,78.8,29.92,WSW,248,0.0,0.0,69,0.02,,,0.06,WUHU216HW,2013-08-08 20:06:00,
2013-08-08 16:12:00,90.5,78.4,29.93,WSW,248,0.0,0.0,68,0.02,,,0.06,WUHU216HW,2013-08-08 20:12:00,
2013-08-08 16:17:00,90.3,78.8,29.92,WSW,248,0.0,0.0,69,0.02,,,0.06,WUHU216HW,2013-08-08 20:17:00,
2013-08-08 16:23:00,90.3,78.3,29.92,NNW,338,0.0,0.0,68,0.02,,,0.06,WUHU216HW,2013-08-08 20:23:00,
2013-08-08 16:28:00,89.9,78.4,29.92,NNW,338,0.0,0.0,69,0.02,,,0.06,WUHU216HW,2013-08-08 20:28:00,
2013-08-08 16:34:00,89.7,78.3,29.92,NNW,338,0.0,0.0,69,0.02,,,0.06,WUHU216HW,2013-08-08 20:34:00,
2013-08-08 16:39:00,89.4,77.9,29.92,NNW,338,0.0,0.0,69,0.02,,,0.06,WUHU216HW,2013-08-08 20:39:00,
2013-08-08 16:45:00,89.2,77.7,29.91,NNW,338,0.0,0.0,69,0.02,,,0.06,WUHU216HW,2013-08-08 20:45:00,
2013-08-08 16:50:00,88.8,77.4,29.91,WSW,248,0.0,0.0,69,0.02,,,0.06,WUHU216HW,2013-08-08 20:50:00,
2013-08-08 16:56:00,89.2,77.7,29.91,WSW,248,0.0,0.0,69,0.00,,,0.06,WUHU216HW,2013-08-08 20:56:00,
2013-08-08 17:01:00,89.6,78.6,29.91,WSW,248,0.0,0.0,70,0.00,,,0.06,WUHU216HW,2013-08-08 21:01:00,
2013-08-08 17:06:00,90.3,79.2,29.91,NNW,338,0.0,0.0,70,0.00,,,0.06,WUHU216HW,2013-08-08 21:06:00,
2013-08-08 17:11:00,90.3,78.8,29.91,North,0,0.0,0.0,69,0.00,,,0.06,WUHU216HW,2013-08-08 21:11:00,
2013-08-08 17:17:00,89.7,78.0,29.91,North,0,0.0,0.0,68,0.00,,,0.06,WUHU216HW,2013-08-08 21:17:00,
2013-08-08 17:22:00,89.4,77.5,29.92,North,0,0.0,0.0,68,0.00,,,0.06,WUHU216HW,2013-08-08 21:22:00,
2013-08-08 17:27:00,88.3,76.4,29.91,West,270,0.0,0.0,68,0.00,,,0.06,WUHU216HW,2013-08-08 21:27:00,
2013-08-08 17:37:00,87.0,76.1,29.92,NW,315,0.0,0.0,70,0.00,,,0.06,WUHU216HW,2013-08-08 21:37:00,
2013-08-08 17:43:00,85.8,75.4,29.92,North,0,4.0,4.0,71,0.00,,,0.06,WUHU216HW,2013-08-08 21:43:00,
2013-08-08 17:48:00,85.1,74.6,29.92,North,0,0.0,4.0,71,0.00,,,0.06,WUHU216HW,2013-08-08 21:48:00,
2013-08-08 17:54:00,84.0,74.0,29.93,NNW,338,0.0,4.0,72,0.00,,,0.06,WUHU216HW,2013-08-08 21:54:00,
2013-08-08 18:00:00,83.4,73.4,29.93,NNW,338,0.0,0.0,72,0.00,,,0.06,WUHU216HW,2013-08-08 22:00:00,
2013-08-08 18:05:00,83.1,73.5,29.93,NNW,338,0.0,0.0,73,0.00,,,0.06,WUHU216HW,2013-08-08 22:05:00,
2013-08-08 18:11:00,82.4,73.2,29.93,NNW,338,0.0,0.0,74,0.00,,,0.06,WUHU216HW,2013-08-08 22:11:00,
2013-08-08 18:22:00,82.0,73.3,29.93,NNW,338,0.0,0.0,75,0.00,,,0.06,WUHU216HW,2013-08-08 22:22:00,
2013-08-08 18:28:00,82.2,73.4,29.92,NNW,338,0.0,0.0,75,0.00,,,0.06,WUHU216HW,2013-08-08 22:28:00,
2013-08-08 18:33:00,82.2,73.4,29.92,NNW,338,0.0,0.0,75,0.00,,,0.06,WUHU216HW,2013-08-08 22:33:00,
2013-08-08 18:39:00,82.5,74.2,29.92,NNW,338,0.0,0.0,76,0.00,,,0.06,WUHU216HW,2013-08-08 22:39:00,
2013-08-08 18:45:00,82.5,74.2,29.92,NNW,338,0.0,0.0,76,0.00,,,0.06,WUHU216HW,2013-08-08 22:45:00,
2013-08-08 18:50:00,82.5,74.2,29.92,NNW,338,0.0,0.0,76,0.00,,,0.06,WUHU216HW,2013-08-08 22:50:00,
2013-08-08 18:56:00,82.2,74.3,29.92,NNW,338,0.0,0.0,77,0.00,,,0.06,WUHU216HW,2013-08-08 22:56:00,
2013-08-08 19:07:00,81.6,73.7,29.92,NNW,338,0.0,0.0,77,0.00,,,0.06,WUHU216HW,2013-08-08 23:07:00,
2013-08-08 19:13:00,81.3,73.4,29.92,NNW,338,0.0,0.0,77,0.00,,,0.06,WUHU216HW,2013-08-08 23:13:00,
2013-08-08 19:19:00,81.1,73.2,29.92,NNW,338,0.0,0.0,77,0.00,,,0.06,WUHU216HW,2013-08-08 23:19:00,
2013-08-08 19:24:00,80.6,72.7,29.92,NNW,338,0.0,0.0,77,0.00,,,0.06,WUHU216HW,2013-08-08 23:24:00,
2013-08-08 19:29:00,80.4,72.5,29.92,North,0,0.0,0.0,77,0.00,,,0.06,WUHU216HW,2013-08-08 23:29:00,
2013-08-08 19:35:00,79.7,72.2,29.92,NNW,338,0.0,0.0,78,0.00,,,0.06,WUHU216HW,2013-08-08 23:35:00,
2013-08-08 19:40:00,79.3,71.8,29.92,NNW,338,0.0,0.0,78,0.00,,,0.06,WUHU216HW,2013-08-08 23:40:00,
2013-08-08 19:45:00,78.9,71.9,29.92,NNW,338,0.0,0.0,79,0.00,,,0.06,WUHU216HW,2013-08-08 23:45:00,
2013-08-08 19:56:00,78.4,71.3,29.92,NNW,338,0.0,0.0,79,0.00,,,0.06,WUHU216HW,2013-08-08 23:56:00,
2013-08-08 20:01:00,77.9,70.8,29.92,NNW,338,0.0,0.0,79,0.00,,,0.06,WUHU216HW,2013-08-09 00:01:00,
2013-08-08 20:07:00,77.5,70.4,29.92,NNW,338,0.0,0.0,79,0.00,,,0.06,WUHU216HW,2013-08-09 00:07:00,
2013-08-08 20:12:00,77.1,70.5,29.92,NNW,338,0.0,0.0,80,0.00,,,0.06,WUHU216HW,2013-08-09 00:12:00,
2013-08-08 20:18:00,76.8,70.1,29.93,NNW,338,0.0,0.0,80,0.00,,,0.06,WUHU216HW,2013-08-09 00:18:00,
2013-08-08 20:23:00,76.8,70.1,29.93,NNW,338,0.0,0.0,80,0.00,,,0.06,WUHU216HW,2013-08-09 00:23:00,
2013-08-08 20:29:00,76.6,70.3,29.93,NNW,338,0.0,0.0,81,0.00,,,0.06,WUHU216HW,2013-08-09 00:29:00,
2013-08-08 20:34:00,76.2,70.0,29.93,NNW,338,0.0,0.0,81,0.00,,,0.06,WUHU216HW,2013-08-09 00:34:00,
2013-08-08 20:40:00,76.1,70.2,29.94,NNW,338,0.0,0.0,82,0.00,,,0.06,WUHU216HW,2013-08-09 00:40:00,
2013-08-08 20:46:00,75.9,70.0,29.93,NNW,338,0.0,0.0,82,0.00,,,0.06,WUHU216HW,2013-08-09 00:46:00,
2013-08-08 20:51:00,75.7,69.8,29.93,NNW,338,0.0,0.0,82,0.00,,,0.06,WUHU216HW,2013-08-09 00:51:00,
2013-08-08 20:57:00,75.7,70.2,29.94,NNW,338,0.0,0.0,83,0.00,,,0.06,WUHU216HW,2013-08-09 00:57:00,
2013-08-08 21:02:00,75.7,70.2,29.94,NNW,338,0.0,0.0,83,0.00,,,0.06,WUHU216HW,2013-08-09 01:02:00,
2013-08-08 21:07:00,75.5,70.0,29.94,NNW,338,0.0,0.0,83,0.00,,,0.06,WUHU216HW,2013-08-09 01:07:00,
2013-08-08 21:13:00,75.5,70.0,29.94,NNW,338,0.0,0.0,83,0.00,,,0.06,WUHU216HW,2013-08-09 01:13:00,
2013-08-08 21:19:00,75.3,70.2,29.95,NNW,338,0.0,0.0,84,0.00,,,0.06,WUHU216HW,2013-08-09 01:19:00,
2013-08-08 21:30:00,75.3,70.2,29.95,NNW,338,0.0,0.0,84,0.00,,,0.06,WUHU216HW,2013-08-09 01:30:00,
2013-08-08 21:36:00,75.3,70.2,29.95,NNW,338,0.0,0.0,84,0.00,,,0.06,WUHU216HW,2013-08-09 01:36:00,
2013-08-08 21:41:00,75.2,70.0,29.95,NNW,338,0.0,0.0,84,0.00,,,0.06,WUHU216HW,2013-08-09 01:41:00,
2013-08-08 21:46:00,75.0,69.9,29.95,NNW,338,0.0,0.0,84,0.00,,,0.06,WUHU216HW,2013-08-09 01:46:00,
2013-08-08 21:52:00,75.0,70.2,29.95,NNW,338,0.0,0.0,85,0.00,,,0.06,WUHU216HW,2013-08-09 01:52:00,
2013-08-08 21:58:00,75.0,70.2,29.94,NNW,338,0.0,0.0,85,0.00,,,0.06,WUHU216HW,2013-08-09 01:58:00,
2013-08-08 22:03:00,74.8,70.0,29.94,NNW,338,0.0,0.0,85,0.00,,,0.06,WUHU216HW,2013-08-09 02:03:00,
2013-08-08 22:08:00,74.8,70.0,29.94,NNW,338,0.0,0.0,85,0.00,,,0.06,WUHU216HW,2013-08-09 02:08:00,
2013-08-08 22:13:00,74.8,70.0,29.95,NNW,338,0.0,0.0,85,0.00,,,0.06,WUHU216HW,2013-08-09 02:13:00,
2013-08-08 22:24:00,74.4,69.7,29.94,NNW,338,0.0,0.0,85,0.00,,,0.06,WUHU216HW,2013-08-09 02:24:00,
2013-08-08 22:30:00,74.4,69.7,29.94,NNW,338,0.0,0.0,85,0.00,,,0.06,WUHU216HW,2013-08-09 02:30:00,
2013-08-08 22:35:00,74.4,69.7,29.93,NNW,338,0.0,0.0,85,0.00,,,0.06,WUHU216HW,2013-08-09 02:35:00,
2013-08-08 22:41:00,74.3,69.8,29.93,NNW,338,0.0,0.0,86,0.00,,,0.06,WUHU216HW,2013-08-09 02:41:00,
2013-08-08 22:48:00,74.1,69.6,29.93,NNW,338,0.0,0.0,86,0.00,,,0.06,WUHU216HW,2013-08-09 02:48:00,
2013-08-08 22:58:00,73.9,69.5,29.93,NNW,338,0.0,0.0,86,0.00,,,0.06,WUHU216HW,2013-08-09 02:58:00,
2013-08-08 23:04:00,73.9,69.5,29.93,NNW,338,0.0,0.0,86,0.00,,,0.06,WUHU216HW,2013-08-09 03:04:00,
2013-08-08 23:15:00,73.7,69.6,29.93,NNW,338,0.0,0.0,87,0.00,,,0.06,WUHU216HW,2013-08-09 03:15:00,
2013-08-08 23:21:00,73.5,69.4,29.93,NNW,338,0.0,0.0,87,0.00,,,0.06,WUHU216HW,2013-08-09 03:21:00,
2013-08-08 23:27:00,73.5,69.4,29.92,NNW,338,0.0,0.0,87,0.00,,,0.06,WUHU216HW,2013-08-09 03:27:00,
2013-08-08 23:38:00,73.2,69.1,29.92,NNW,338,0.0,0.0,87,0.00,,,0.06,WUHU216HW,2013-08-09 03:38:00,
2013-08-08 23:44:00,73.2,69.4,29.92,NNW,338,0.0,0.0,88,0.00,,,0.06,WUHU216HW,2013-08-09 03:44:00,
2013-08-08 23:54:00,73.0,69.2,29.92,NNW,338,0.0,0.0,88,0.00,,,0.06,WUHU216HW,2013-08-09 03:54:00,